Terminal Aerodrome Forecast
Issued by NWS Paducah, KY

Home | Current Version | Previous Version | Text Only | Print | Product List | Glossary On
Versions: 1 2 3 4 5 6 7 8 9 10 11 12 13 14 15 16 17 18 19 20 21 22 23
000
FTUS43 KPAH 050102 AAA
TAFEVV
TAF AMD
KEVV 050102Z 0501/0524 35010KT 3/4SM -SN BR VV009
     FM050300 36010KT 1 1/2SM -SN BR VV010
     FM050500 35010KT 3SM -SN BR OVC010
     FM050900 36008KT 6SM BR SCT010 OVC120
     FM051600 35008KT P6SM SCT015=

USA.gov is the U.S. government's official web portal to all federal, state and local government web resources and services.